Data for 06/11/2010

Time Sea-Level Adjusted Pressure Absolute Pressure Temperature Relative Humidity Dew Point   
(mb) (inHg) (mb) (inHg) (C) (F) (%) (C) (F)
00:05 1017 30.03 846 24.98 3.8 38.9 94 2.9 37.3
00:10 1017 30.03 846 24.98 3.9 39 95 3.1 37.5
00:15 1017 30.03 846 24.98 3.9 39.1 95 3.1 37.7
00:20 1017 30.03 846 24.98 3.9 39 95 3.2 37.7
00:25 1017 30.03 846 24.98 3.9 39 95 3.2 37.7
00:30 1017 30.03 846 24.98 3.9 39.1 95 3.2 37.7
00:35 1017 30.03 846 24.98 3.9 39 95 3.1 37.6
00:40 1017 30.03 846 24.98 3.9 39.1 94 3.1 37.6
00:45 1017 30.03 846 24.98 4 39.2 94 3.1 37.6
00:50 1017 30.03 846 24.98 4 39.2 94 3 37.5
00:55 1017 30.03 846 24.98 3.9 39.1 93 2.9 37.3
01:00 1017 30.03 846 24.98 3.8 38.8 93 2.7 36.9
01:05 1017 30.03 846 24.98 3.7 38.6 94 2.7 36.9
01:10 1017 30.03 846 24.98 3.6 38.5 94 2.8 37
01:15 1017 30.03 847 25.01 3.6 38.5 94 2.7 36.9
01:20 1017 30.03 847 25.01 3.6 38.5 93 2.6 36.7
01:25 1017 30.03 847 25.01 3.5 38.3 93 2.5 36.5
01:30 1017 30.03 847 25.01 3.4 38.1 92 2.2 36
01:35 1017 30.03 847 25.01 3.3 37.9 92 2.1 35.8
01:40 1018 30.06 847 25.01 3.2 37.7 93 2.1 35.8
01:45 1018 30.06 847 25.01 3 37.3 92 1.8 35.3
01:50 1018 30.06 847 25.01 2.8 37 92 1.7 35
01:55 1018 30.06 847 25.01 2.6 36.7 93 1.5 34.8
02:00 1018 30.06 847 25.01 2.4 36.4 93 1.4 34.5
02:05 1018 30.06 847 25.01 2.3 36.2 92 1.2 34.1
02:10 1018 30.06 847 25.01 2.2 35.9 92 1 33.9
02:15 1018 30.06 847 25.01 2 35.6 93 0.9 33.7
02:20 1018 30.06 847 25.01 1.7 35.1 93 0.7 33.3
02:25 1018 30.06 847 25.01 1.4 34.5 94 0.6 33.1
02:30 1018 30.06 847 25.01 1.2 34.2 95 0.5 32.9
02:35 1018 30.06 848 25.04 0.9 33.7 95 0.3 32.5
02:40 1018 30.06 848 25.04 0.7 33.2 96 0.1 32.2
02:45 1019 30.09 848 25.04 0.5 32.9 96 0 32
02:50 1019 30.09 848 25.04 0.3 32.6 97 -0.1 31.9
02:55 1019 30.09 848 25.04 0.3 32.5 97 -0.1 31.8
03:00 1019 30.09 848 25.04 0.3 32.5 97 -0.1 31.8
03:05 1019 30.09 848 25.04 0.2 32.4 97 -0.2 31.7
03:10 1019 30.09 848 25.04 0.3 32.5 98 -0.1 31.9
03:15 1019 30.09 848 25.04 0.2 32.4 98 -0.1 31.9
03:20 1019 30.09 848 25.04 0.2 32.4 98 -0.1 31.9
03:25 1019 30.09 848 25.04 0.2 32.4 98 -0.1 31.9
03:30 1019 30.09 848 25.04 0.2 32.4 98 -0.1 31.8
03:35 1019 30.09 848 25.04 0.2 32.4 98 -0.1 31.9
03:40 1019 30.09 849 25.07 0.2 32.4 98 -0.1 31.9
03:45 1019 30.09 849 25.07 0.2 32.3 98 -0.1 31.9
03:50 1019 30.09 849 25.07 0.2 32.3 98 -0.1 31.9
03:55 1020 30.12 849 25.07 0.2 32.3 98 -0.1 31.9
04:00 1020 30.12 849 25.07 0.2 32.4 98 -0 31.9
04:05 1020 30.12 849 25.07 0.2 32.4 98 -0 31.9
04:10 1020 30.12 849 25.07 0.3 32.5 98 0 32
04:15 1020 30.12 849 25.07 0.3 32.5 98 0 32.1
04:20 1020 30.12 849 25.07 0.2 32.4 98 0 32
04:25 1020 30.12 849 25.07 0.3 32.5 98 0 32
04:30 1020 30.12 849 25.07 0.4 32.7 99 0.2 32.3
04:35 1020 30.12 849 25.07 0.4 32.6 98 0.1 32.2
04:40 1020 30.12 849 25.07 0.4 32.8 98 0.2 32.3
04:45 1020 30.12 849 25.07 0.4 32.8 98 0.2 32.3
04:50 1020 30.12 849 25.07 0.5 32.9 98 0.2 32.4
04:55 1020 30.12 849 25.07 0.5 32.9 98 0.2 32.4
05:00 1020 30.12 849 25.07 0.6 33 98 0.3 32.5
05:05 1020 30.12 850 25.1 0.6 33 98 0.3 32.5
05:10 1020 30.12 850 25.1 0.5 32.9 98 0.2 32.3
05:15 1020 30.12 850 25.1 0.5 32.9 98 0.2 32.3
05:20 1020 30.12 850 25.1 0.5 32.9 98 0.2 32.3
05:25 1020 30.12 850 25.1 0.6 33 98 0.2 32.4
05:30 1020 30.12 850 25.1 0.6 33 98 0.2 32.4
05:35 1021 30.15 850 25.1 0.6 33.1 98 0.3 32.5
05:40 1021 30.15 850 25.1 0.7 33.2 98 0.3 32.6
05:45 1021 30.15 850 25.1 0.7 33.2 98 0.4 32.6
05:50 1021 30.15 850 25.1 0.7 33.2 98 0.3 32.6
05:55 1021 30.15 850 25.1 0.7 33.3 98 0.3 32.6
06:00 1021 30.15 850 25.1 0.7 33.3 98 0.4 32.7
06:05 1021 30.15 850 25.1 0.8 33.4 97 0.4 32.7
06:10 1021 30.15 850 25.1 0.7 33.3 97 0.4 32.7
06:15 1021 30.15 850 25.1 0.8 33.4 97 0.4 32.7
06:20 1021 30.15 850 25.1 0.8 33.4 97 0.4 32.6
06:25 1021 30.15 850 25.1 0.7 33.3 97 0.3 32.6
06:30 1021 30.15 850 25.1 0.7 33.3 97 0.3 32.6
06:35 1021 30.15 850 25.1 0.6 33.1 97 0.2 32.4
06:40 1021 30.15 850 25.1 0.7 33.3 97 0.3 32.6
06:45 1021 30.15 851 25.13 0.8 33.4 97 0.4 32.7
06:50 1021 30.15 851 25.13 0.7 33.3 97 0.3 32.5
06:55 1022 30.18 851 25.13 0.6 33.1 97 0.2 32.3
07:00 1022 30.18 851 25.13 0.6 33.1 97 0.2 32.4
07:05 1022 30.18 851 25.13 0.8 33.4 97 0.4 32.8
07:10 1022 30.18 851 25.13 0.9 33.6 97 0.5 32.8
07:15 1022 30.18 851 25.13 0.9 33.7 97 0.5 32.9
07:20 1022 30.18 851 25.13 0.9 33.7 97 0.5 32.8
07:25 1022 30.18 851 25.13 0.9 33.5 97 0.4 32.7
07:30 1022 30.18 851 25.13 0.9 33.6 97 0.4 32.8
07:35 1022 30.18 851 25.13 0.9 33.7 97 0.4 32.8
07:40 1022 30.18 851 25.13 1 33.8 96 0.5 32.9
07:45 1022 30.18 851 25.13 1.1 33.9 96 0.5 32.9
07:50 1022 30.18 851 25.13 1.1 33.9 96 0.5 32.9
07:55 1022 30.18 851 25.13 1 33.9 96 0.5 32.8
08:00 1022 30.18 851 25.13 1 33.9 96 0.4 32.8
08:05 1022 30.18 851 25.13 1 33.8 96 0.4 32.7
08:10 1022 30.18 851 25.13 0.9 33.6 96 0.3 32.6
08:15 1022 30.18 851 25.13 1.1 33.9 96 0.5 32.9
08:20 1022 30.18 851 25.13 1.1 34 96 0.5 32.9
08:25 1022 30.18 851 25.13 1.3 34.3 95 0.6 33.1
08:30 1022 30.18 851 25.13 1.5 34.6 95 0.8 33.4
08:35 1022 30.18 852 25.16 1.9 35.3 95 1.1 34.1
08:40 1022 30.18 852 25.16 2.2 35.9 92 1 33.8
08:45 1022 30.18 852 25.16 2.2 35.9 91 0.9 33.6
08:50 1022 30.18 852 25.16 1.8 35.3 93 0.9 33.6
08:55 1023 30.21 852 25.16 1.8 35.2 94 0.9 33.6
09:00 1023 30.21 852 25.16 2.3 36.1 93 1.3 34.3
09:05 1023 30.21 852 25.16 2.9 37.2 91 1.5 34.7
09:10 1023 30.21 852 25.16 3.1 37.6 89 1.4 34.5
09:15 1023 30.21 852 25.16 3.1 37.5 88 1.4 34.4
09:20 1023 30.21 852 25.16 2.9 37.3 90 1.4 34.6
09:25 1023 30.21 852 25.16 2.6 36.7 91 1.3 34.3
09:30 1023 30.21 852 25.16 2.6 36.6 92 1.4 34.5
09:35 1023 30.21 852 25.16 2.7 36.8 92 1.4 34.6
09:40 1023 30.21 852 25.16 2.9 37.2 91 1.5 34.8
09:45 1023 30.21 852 25.16 3.2 37.7 88 1.4 34.5
09:50 1023 30.21 852 25.16 3.1 37.7 90 1.6 34.9
09:55 1023 30.21 852 25.16 3.1 37.6 87 1.1 34
10:00 1023 30.21 852 25.16 3.3 37.9 87 1.3 34.4
10:05 1023 30.21 852 25.16 4.1 39.4 82 1.3 34.3
10:10 1023 30.21 852 25.16 4.4 39.9 83 1.8 35.3
10:15 1023 30.21 852 25.16 4.4 40 83 1.9 35.4
10:20 1023 30.21 852 25.16 4.9 40.8 83 2.3 36.1
10:25 1023 30.21 852 25.16 5.4 41.7 78 1.9 35.4
10:30 1023 30.21 852 25.16 5.4 41.7 82 2.6 36.7
10:35 1023 30.21 852 25.16 6.2 43.2 80 3.1 37.6
10:40 1023 30.21 852 25.16 6.3 43.4 80 3.2 37.8
10:45 1023 30.21 852 25.16 6.3 43.3 77 2.5 36.5
10:50 1023 30.21 852 25.16 6.2 43.2 76 2.3 36.1
10:55 1023 30.21 852 25.16 6.1 43 80 2.8 37.1
11:00 1023 30.21 852 25.16 6.2 43.2 81 3.1 37.6
11:05 1023 30.21 852 25.16 6.1 42.9 78 2.6 36.7
11:10 1023 30.21 852 25.16 6.3 43.4 76 2.4 36.4
11:15 1023 30.21 852 25.16 6.3 43.4 80 3.2 37.7
11:20 1023 30.21 853 25.19 6.6 43.9 75 2.5 36.5
11:25 1023 30.21 853 25.19 7.3 45.1 76 3.4 38.1
11:30 1023 30.21 853 25.19 8.3 47 66 2.5 36.4
11:35 1023 30.21 853 25.19 9 48.2 64 2.5 36.5
11:40 1023 30.21 853 25.19 8.6 47.5 65 2.5 36.5
11:45 1023 30.21 853 25.19 8.7 47.6 61 1.6 35
11:50 1023 30.21 853 25.19 9.3 48.8 59 1.8 35.2
11:55 1023 30.21 853 25.19 9 48.3 61 2 35.5
12:00 1023 30.21 853 25.19 9.1 48.3 60 1.8 35.3
12:05 1023 30.21 853 25.19 9.2 48.6 58 1.4 34.5
12:10 1023 30.21 853 25.19 9.4 49 56 1.1 34
12:15 1023 30.21 853 25.19 9.7 49.4 56 1.4 34.5
12:20 1023 30.21 853 25.19 10 49.9 53 0.9 33.7
12:25 1023 30.21 853 25.19 8.7 47.7 59 1.2 34.1
12:30 1023 30.21 853 25.19 9.7 49.5 55 1.1 34.1
12:35 1024 30.24 853 25.19 10.5 50.8 52 1 33.7
12:40 1024 30.24 853 25.19 10.4 50.8 53 1.4 34.5
12:45 1024 30.24 853 25.19 9.7 49.5 56 1.4 34.4
12:50 1024 30.24 853 25.19 9.6 49.3 53 0.4 32.8
12:55 1024 30.24 853 25.19 10.1 50.1 54 1.1 34
13:00 1024 30.24 853 25.19 9.9 49.8 55 1.4 34.5
13:05 1024 30.24 853 25.19 10.3 50.5 54 1.3 34.4
13:10 1024 30.24 853 25.19 10.3 50.5 50 0.3 32.5
13:15 1024 30.24 853 25.19 10.1 50.2 55 1.5 34.6
13:20 1024 30.24 853 25.19 10.4 50.7 53 1.3 34.3
13:25 1024 30.24 853 25.19 10 50 54 1.3 34.3
13:30 1024 30.24 853 25.19 10.3 50.5 54 1.5 34.6
13:35 1024 30.24 853 25.19 10.4 50.7 54 1.5 34.8
13:40 1024 30.24 853 25.19 10.8 51.4 49 0.6 33.1
13:45 1024 30.24 853 25.19 10.8 51.5 49 0.6 33.1
13:50 1024 30.24 853 25.19 10.8 51.5 46 -0.2 31.6
13:55 1024 30.24 853 25.19 11.1 52 49 0.9 33.7
14:00 1024 30.24 853 25.19 11.9 53.4 47 1 33.8
14:05 1024 30.24 853 25.19 12.2 53.9 48 1.5 34.6
14:10 1024 30.24 853 25.19 12.2 53.9 49 1.8 35.3
14:15 1024 30.24 853 25.19 11.1 52 52 1.6 34.9
14:20 1024 30.24 853 25.19 12.2 53.9 49 1.8 35.3
14:25 1024 30.24 853 25.19 12.6 54.7 46 1.4 34.6
14:30 1024 30.24 853 25.19 12.9 55.2 45 1.3 34.3
14:35 1024 30.24 853 25.19 13 55.4 47 1.9 35.5
14:40 1024 30.24 853 25.19 12 53.5 48 1.3 34.4
14:45 1024 30.24 853 25.19 11.7 53.1 46 0.5 32.9
14:50 1024 30.24 853 25.19 11.9 53.3 44 0 32.1
14:55 1024 30.24 853 25.19 11.9 53.5 46 0.6 33.2
15:00 1024 30.24 853 25.19 12.1 53.7 46 0.7 33.3
15:05 1024 30.24 853 25.19 12 53.7 47 1 33.9
15:10 1024 30.24 853 25.19 12.3 54.2 48 1.6 35
15:15 1024 30.24 853 25.19 12.4 54.4 47 1.4 34.5
15:20 1024 30.24 853 25.19 12 53.6 50 2 35.6
15:25 1024 30.24 853 25.19 11.8 53.2 49 1.6 34.8
15:30 1024 30.24 853 25.19 11.7 53.1 49 1.6 34.8
15:35 1024 30.24 853 25.19 11.8 53.3 51 2.1 35.8
15:40 1024 30.24 853 25.19 10.9 51.5 53 1.7 35.1
15:45 1024 30.24 853 25.19 10.8 51.5 53 1.7 35.1
15:50 1024 30.24 853 25.19 11.2 52.2 51 1.4 34.5
15:55 1024 30.24 853 25.19 11.7 53.1 49 1.3 34.4
16:00 1024 30.24 853 25.19 11.8 53.2 50 1.7 35
16:05 1024 30.24 853 25.19 12.3 54.2 48 1.7 35
16:10 1024 30.24 853 25.19 12.8 55 46 1.5 34.6
16:15 1024 30.24 853 25.19 12 53.6 50 2 35.6
16:20 1024 30.24 853 25.19 12.2 54 49 2 35.6
16:25 1024 30.24 853 25.19 12.5 54.4 46 1.3 34.3
16:30 1024 30.24 853 25.19 12.6 54.6 45 1.1 33.9
16:35 1024 30.24 853 25.19 12.4 54.3 47 1.4 34.5
16:40 1024 30.24 853 25.19 11.4 52.5 52 1.9 35.5
16:45 1024 30.24 854 25.22 11.1 51.9 52 1.7 35.1
16:50 1024 30.24 854 25.22 11.3 52.3 50 1.3 34.4
16:55 1024 30.24 854 25.22 12.1 53.8 45 0.8 33.4
17:00 1024 30.24 854 25.22 12.3 54.2 45 0.7 33.3
17:05 1024 30.24 854 25.22 12.3 54.2 44 0.6 33.1
17:10 1024 30.24 854 25.22 12.6 54.7 45 1.1 34
17:15 1024 30.24 854 25.22 12.4 54.3 45 1 33.8
17:20 1024 30.24 854 25.22 12.1 53.8 48 1.5 34.7
17:25 1024 30.24 854 25.22 12 53.6 47 1.1 34
17:30 1024 30.24 854 25.22 12.3 54.1 45 0.8 33.4
17:35 1024 30.24 854 25.22 12.5 54.6 43 0.4 32.7
17:40 1024 30.24 854 25.22 13.3 55.9 44 1.3 34.4
17:45 1025 30.27 854 25.22 13.1 55.5 45 1.4 34.5
17:50 1025 30.27 854 25.22 12.4 54.4 46 1.2 34.1
17:55 1024 30.24 854 25.22 12.4 54.3 46 1.1 34
18:00 1024 30.24 854 25.22 12.8 55 46 1.7 35
18:05 1024 30.24 854 25.22 13.2 55.7 45 1.7 35.1
18:10 1025 30.27 854 25.22 12.6 54.7 48 2 35.6
18:15 1025 30.27 854 25.22 12.3 54.2 48 1.7 35.1
18:20 1025 30.27 854 25.22 12.3 54.1 48 1.6 34.9
18:25 1025 30.27 854 25.22 12.4 54.2 49 1.9 35.5
18:30 1025 30.27 854 25.22 12.3 54.1 46 0.9 33.7
18:35 1025 30.27 854 25.22 12.1 53.7 47 1.3 34.3
18:40 1025 30.27 854 25.22 12.3 54.1 47 1.5 34.6
18:45 1025 30.27 854 25.22 12.8 55 46 1.5 34.8
18:50 1025 30.27 854 25.22 12 53.5 49 1.8 35.2
18:55 1025 30.27 854 25.22 11.3 52.3 50 1.3 34.3
19:00 1025 30.27 854 25.22 11 51.8 57 2.8 37.1
19:05 1025 30.27 854 25.22 10.6 51.1 54 1.6 34.9
19:10 1025 30.27 854 25.22 10.5 50.9 60 3.2 37.8
19:15 1025 30.27 854 25.22 10 49.9 61 2.9 37.2
19:20 1025 30.27 854 25.22 10 50.1 62 3 37.4
19:25 1025 30.27 854 25.22 9.9 49.9 62 3 37.4
19:30 1025 30.27 854 25.22 9.6 49.3 64 3.2 37.8
19:35 1025 30.27 854 25.22 9.4 48.9 64 3 37.3
19:40 1025 30.27 855 25.25 9.3 48.7 64 2.8 37
19:45 1025 30.27 855 25.25 9 48.2 66 2.9 37.3
19:50 1025 30.27 855 25.25 9.1 48.3 62 2.2 35.9
19:55 1026 30.3 855 25.25 9 48.2 63 2.3 36.2
20:00 1026 30.3 855 25.25 9 48.3 64 2.7 36.9
20:05 1026 30.3 855 25.25 9 48.2 66 3.1 37.5
20:10 1026 30.3 855 25.25 8.8 47.9 66 2.8 37
20:15 1026 30.3 855 25.25 8.8 47.8 67 2.9 37.3
20:20 1026 30.3 855 25.25 8.9 47.9 67 3 37.5
20:25 1026 30.3 855 25.25 8.9 48 65 2.8 37
20:30 1026 30.3 855 25.25 8.9 48 65 2.8 37
20:35 1026 30.3 855 25.25 9.1 48.3 65 2.8 37.1
20:40 1026 30.3 855 25.25 9.2 48.5 64 2.8 37
20:45 1026 30.3 855 25.25 9.3 48.7 64 2.8 37.1
20:50 1026 30.3 855 25.25 9.4 48.9 64 3 37.4
20:55 1026 30.3 855 25.25 9.2 48.5 65 2.9 37.3
21:00 1026 30.3 855 25.25 9.2 48.5 65 3.1 37.5
21:05 1026 30.3 855 25.25 9.1 48.4 67 3.3 37.9
21:10 1026 30.3 855 25.25 9 48.2 68 3.5 38.3
21:15 1026 30.3 855 25.25 8.7 47.7 72 3.9 39.1
21:20 1026 30.3 855 25.25 8.2 46.8 74 3.9 39
21:25 1026 30.3 855 25.25 8 46.5 75 3.9 39
21:30 1026 30.3 855 25.25 7.9 46.1 76 3.9 39.1
21:35 1026 30.3 855 25.25 7.7 45.9 76 3.8 38.9
21:40 1026 30.3 855 25.25 7.7 45.8 76 3.8 38.8
21:45 1026 30.3 855 25.25 7.6 45.6 75 3.4 38.2
21:50 1026 30.3 855 25.25 7.6 45.6 76 3.6 38.5
21:55 1026 30.3 855 25.25 7.4 45.4 75 3.2 37.8
22:00 1026 30.3 855 25.25 7.4 45.4 70 2.4 36.2
22:05 1026 30.3 855 25.25 7.5 45.6 70 2.5 36.5
22:10 1026 30.3 856 25.28 7.3 45.2 71 2.5 36.5
22:15 1026 30.3 856 25.28 7.1 44.8 71 2.3 36.1
22:20 1026 30.3 856 25.28 7.1 44.7 72 2.3 36.1
22:25 1026 30.3 856 25.28 7 44.6 71 2.1 35.8
22:30 1026 30.3 856 25.28 6.9 44.5 72 2.2 35.9
22:35 1026 30.3 856 25.28 6.8 44.3 72 2.2 36
22:40 1027 30.33 856 25.28 6.8 44.3 72 2.1 35.8
22:45 1027 30.33 856 25.28 6.7 44 73 2.1 35.8
22:50 1027 30.33 856 25.28 6.6 43.9 72 2 35.6
22:55 1027 30.33 856 25.28 6.7 44.1 70 1.6 34.8
23:00 1027 30.33 856 25.28 6.9 44.4 70 1.8 35.3
23:05 1027 30.33 856 25.28 6.9 44.4 68 1.5 34.6
23:10 1027 30.33 856 25.28 7 44.5 69 1.7 35.1
23:15 1027 30.33 856 25.28 6.8 44.2 70 1.7 35
23:20 1027 30.33 856 25.28 6.7 44 72 1.9 35.5
23:25 1027 30.33 856 25.28 6.4 43.5 73 1.9 35.4
23:30 1027 30.33 856 25.28 6.4 43.5 71 1.6 34.9
23:35 1027 30.33 856 25.28 6.5 43.6 71 1.6 34.9
23:40 1027 30.33 856 25.28 6.6 43.8 70 1.6 34.8
23:45 1027 30.33 856 25.28 6.6 44 72 1.9 35.4
23:50 1027 30.33 856 25.28 6.5 43.7 72 1.9 35.3
23:55 1027 30.33 856 25.28 6.3 43.4 75 2.2 35.9
24:00 1027 30.33 856 25.28 6.2 43.1 78 2.6 36.7